sensor_id;sensor_type;location;lat;lon;timestamp;temperature;humidity
51853;DHT22;37894;53.172;6.598;2023-01-15T00:00:20;6.00;99.90
51853;DHT22;37894;53.172;6.598;2023-01-15T00:02:45;6.10;99.90
51853;DHT22;37894;53.172;6.598;2023-01-15T00:07:37;6.20;99.90
51853;DHT22;37894;53.172;6.598;2023-01-15T00:10:03;5.90;99.90
51853;DHT22;37894;53.172;6.598;2023-01-15T00:14:55;6.10;99.90
51853;DHT22;37894;53.172;6.598;2023-01-15T00:17:22;5.90;99.90
51853;DHT22;37894;53.172;6.598;2023-01-15T00:22:14;5.50;99.90
51853;DHT22;37894;53.172;6.598;2023-01-15T00:24:40;6.30;99.90
51853;DHT22;37894;53.172;6.598;2023-01-15T00:30:08;6.20;99.90
51853;DHT22;37894;53.172;6.598;2023-01-15T00:32:34;6.30;99.90
51853;DHT22;37894;53.172;6.598;2023-01-15T00:34:59;6.10;99.90
51853;DHT22;37894;53.172;6.598;2023-01-15T00:37:26;6.30;99.90
51853;DHT22;37894;53.172;6.598;2023-01-15T00:42:17;6.60;99.90
51853;DHT22;37894;53.172;6.598;2023-01-15T00:47:10;6.20;99.90
51853;DHT22;37894;53.172;6.598;2023-01-15T00:49:40;5.90;99.90
51853;DHT22;37894;53.172;6.598;2023-01-15T00:52:06;6.10;99.90
51853;DHT22;37894;53.172;6.598;2023-01-15T00:54:32;6.10;99.90
51853;DHT22;37894;53.172;6.598;2023-01-15T00:56:58;5.40;99.90
51853;DHT22;37894;53.172;6.598;2023-01-15T00:59:23;6.10;99.90
51853;DHT22;37894;53.172;6.598;2023-01-15T01:04:15;5.80;99.90
51853;DHT22;37894;53.172;6.598;2023-01-15T01:06:41;6.50;99.90
51853;DHT22;37894;53.172;6.598;2023-01-15T01:09:07;6.10;99.90
51853;DHT22;37894;53.172;6.598;2023-01-15T01:11:34;6.20;99.90
51853;DHT22;37894;53.172;6.598;2023-01-15T01:14:01;6.40;99.90
51853;DHT22;37894;53.172;6.598;2023-01-15T01:16:30;6.10;99.90
51853;DHT22;37894;53.172;6.598;2023-01-15T01:18:58;5.50;99.90
51853;DHT22;37894;53.172;6.598;2023-01-15T01:21:25;5.60;99.90
51853;DHT22;37894;53.172;6.598;2023-01-15T01:23:52;6.00;99.90
51853;DHT22;37894;53.172;6.598;2023-01-15T01:26:18;6.30;99.90
51853;DHT22;37894;53.172;6.598;2023-01-15T01:28:48;6.10;99.90
51853;DHT22;37894;53.172;6.598;2023-01-15T01:31:14;6.60;99.90
51853;DHT22;37894;53.172;6.598;2023-01-15T01:36:06;7.20;99.90
51853;DHT22;37894;53.172;6.598;2023-01-15T01:38:32;6.00;99.90
51853;DHT22;37894;53.172;6.598;2023-01-15T01:40:58;6.10;99.90
51853;DHT22;37894;53.172;6.598;2023-01-15T01:43:26;7.00;99.90
51853;DHT22;37894;53.172;6.598;2023-01-15T01:45:52;6.60;99.90
51853;DHT22;37894;53.172;6.598;2023-01-15T01:48:22;6.60;99.90
51853;DHT22;37894;53.172;6.598;2023-01-15T01:50:49;6.20;99.90
51853;DHT22;37894;53.172;6.598;2023-01-15T01:53:19;6.20;99.90
51853;DHT22;37894;53.172;6.598;2023-01-15T01:55:47;7.30;99.90
51853;DHT22;37894;53.172;6.598;2023-01-15T01:58:14;6.40;99.90
51853;DHT22;37894;53.172;6.598;2023-01-15T02:00:44;6.00;99.90
51853;DHT22;37894;53.172;6.598;2023-01-15T02:03:10;6.20;99.90
51853;DHT22;37894;53.172;6.598;2023-01-15T02:05:39;6.30;99.90
51853;DHT22;37894;53.172;6.598;2023-01-15T02:08:06;5.90;99.90
51853;DHT22;37894;53.172;6.598;2023-01-15T02:10:32;6.10;99.90
51853;DHT22;37894;53.172;6.598;2023-01-15T02:13:18;6.30;99.90
51853;DHT22;37894;53.172;6.598;2023-01-15T02:18:44;6.20;99.90
51853;DHT22;37894;53.172;6.598;2023-01-15T02:21:45;5.60;99.90
51853;DHT22;37894;53.172;6.598;2023-01-15T02:27:15;5.80;99.90
51853;DHT22;37894;53.172;6.598;2023-01-15T02:29:47;6.30;99.90
51853;DHT22;37894;53.172;6.598;2023-01-15T02:34:52;5.40;99.90
51853;DHT22;37894;53.172;6.598;2023-01-15T02:37:25;6.30;99.90
51853;DHT22;37894;53.172;6.598;2023-01-15T02:39:53;6.20;99.90
51853;DHT22;37894;53.172;6.598;2023-01-15T02:42:22;5.80;99.90
51853;DHT22;37894;53.172;6.598;2023-01-15T02:44:51;6.30;99.90
51853;DHT22;37894;53.172;6.598;2023-01-15T02:47:23;5.90;99.90
51853;DHT22;37894;53.172;6.598;2023-01-15T02:49:51;6.20;99.90
51853;DHT22;37894;53.172;6.598;2023-01-15T02:52:23;5.50;99.90
51853;DHT22;37894;53.172;6.598;2023-01-15T02:54:58;6.40;99.90
51853;DHT22;37894;53.172;6.598;2023-01-15T02:57:27;5.80;99.90
51853;DHT22;37894;53.172;6.598;2023-01-15T02:59:56;6.90;99.90
51853;DHT22;37894;53.172;6.598;2023-01-15T03:02:27;6.30;99.90
51853;DHT22;37894;53.172;6.598;2023-01-15T03:07:27;6.50;99.90
51853;DHT22;37894;53.172;6.598;2023-01-15T03:09:55;6.20;99.90
51853;DHT22;37894;53.172;6.598;2023-01-15T03:12:28;6.60;99.90
51853;DHT22;37894;53.172;6.598;2023-01-15T03:15:07;6.50;99.90
51853;DHT22;37894;53.172;6.598;2023-01-15T03:17:40;5.50;99.90
51853;DHT22;37894;53.172;6.598;2023-01-15T03:20:25;6.10;99.90
51853;DHT22;37894;53.172;6.598;2023-01-15T03:23:04;6.20;99.90
51853;DHT22;37894;53.172;6.598;2023-01-15T03:25:42;6.00;99.90
51853;DHT22;37894;53.172;6.598;2023-01-15T03:28:10;6.20;99.90
51853;DHT22;37894;53.172;6.598;2023-01-15T03:30:36;6.20;99.90
51853;DHT22;37894;53.172;6.598;2023-01-15T03:33:02;6.10;99.90
51853;DHT22;37894;53.172;6.598;2023-01-15T03:35:58;6.20;99.90
51853;DHT22;37894;53.172;6.598;2023-01-15T03:38:27;6.40;99.90
51853;DHT22;37894;53.172;6.598;2023-01-15T03:52:15;6.10;99.90
51853;DHT22;37894;53.172;6.598;2023-01-15T03:55:08;5.90;99.90
51853;DHT22;37894;53.172;6.598;2023-01-15T03:57:47;6.10;99.90
51853;DHT22;37894;53.172;6.598;2023-01-15T04:00:31;6.20;99.90
51853;DHT22;37894;53.172;6.598;2023-01-15T04:02:59;6.30;99.90
51853;DHT22;37894;53.172;6.598;2023-01-15T04:05:29;5.90;99.90
51853;DHT22;37894;53.172;6.598;2023-01-15T04:07:57;6.30;99.90
51853;DHT22;37894;53.172;6.598;2023-01-15T04:10:23;5.90;99.90
51853;DHT22;37894;53.172;6.598;2023-01-15T04:12:49;6.60;99.90
51853;DHT22;37894;53.172;6.598;2023-01-15T04:15:15;6.40;99.90
51853;DHT22;37894;53.172;6.598;2023-01-15T04:17:42;6.20;99.90
51853;DHT22;37894;53.172;6.598;2023-01-15T04:20:08;6.50;99.90
51853;DHT22;37894;53.172;6.598;2023-01-15T04:22:34;6.30;99.90
51853;DHT22;37894;53.172;6.598;2023-01-15T04:25:01;6.10;99.90
51853;DHT22;37894;53.172;6.598;2023-01-15T04:27:27;6.20;99.90
51853;DHT22;37894;53.172;6.598;2023-01-15T04:29:53;6.20;99.90
51853;DHT22;37894;53.172;6.598;2023-01-15T04:32:19;7.10;99.90
51853;DHT22;37894;53.172;6.598;2023-01-15T04:37:11;6.10;99.90
51853;DHT22;37894;53.172;6.598;2023-01-15T04:39:37;6.30;99.90
51853;DHT22;37894;53.172;6.598;2023-01-15T04:42:03;6.40;99.90
51853;DHT22;37894;53.172;6.598;2023-01-15T04:44:47;6.00;99.90
51853;DHT22;37894;53.172;6.598;2023-01-15T04:49:39;5.90;99.90
51853;DHT22;37894;53.172;6.598;2023-01-15T04:52:05;5.60;99.90
51853;DHT22;37894;53.172;6.598;2023-01-15T04:54:31;5.90;99.90
51853;DHT22;37894;53.172;6.598;2023-01-15T04:56:56;7.20;99.90
51853;DHT22;37894;53.172;6.598;2023-01-15T04:59:26;6.00;99.90
51853;DHT22;37894;53.172;6.598;2023-01-15T05:01:52;6.30;99.90
51853;DHT22;37894;53.172;6.598;2023-01-15T05:04:18;5.90;99.90
51853;DHT22;37894;53.172;6.598;2023-01-15T05:06:44;5.90;99.90
51853;DHT22;37894;53.172;6.598;2023-01-15T05:09:09;5.90;99.90
51853;DHT22;37894;53.172;6.598;2023-01-15T05:11:37;5.90;99.90
51853;DHT22;37894;53.172;6.598;2023-01-15T05:14:03;5.90;99.90
51853;DHT22;37894;53.172;6.598;2023-01-15T05:16:29;5.90;99.90
51853;DHT22;37894;53.172;6.598;2023-01-15T05:19:00;6.10;99.90
51853;DHT22;37894;53.172;6.598;2023-01-15T05:21:32;5.90;99.90
51853;DHT22;37894;53.172;6.598;2023-01-15T05:23:59;5.60;99.90
51853;DHT22;37894;53.172;6.598;2023-01-15T05:26:27;5.90;99.90
51853;DHT22;37894;53.172;6.598;2023-01-15T05:28:53;6.00;99.90
51853;DHT22;37894;53.172;6.598;2023-01-15T05:31:21;5.00;99.90
51853;DHT22;37894;53.172;6.598;2023-01-15T05:33:47;6.40;99.90
51853;DHT22;37894;53.172;6.598;2023-01-15T05:36:16;6.10;99.90
51853;DHT22;37894;53.172;6.598;2023-01-15T05:38:43;5.50;99.90
51853;DHT22;37894;53.172;6.598;2023-01-15T05:41:11;5.80;99.90
51853;DHT22;37894;53.172;6.598;2023-01-15T05:43:59;5.60;99.90
51853;DHT22;37894;53.172;6.598;2023-01-15T05:46:25;5.60;99.90
51853;DHT22;37894;53.172;6.598;2023-01-15T05:48:51;5.90;99.90
51853;DHT22;37894;53.172;6.598;2023-01-15T05:51:16;6.30;99.90
51853;DHT22;37894;53.172;6.598;2023-01-15T05:56:08;5.70;99.90
51853;DHT22;37894;53.172;6.598;2023-01-15T05:58:34;5.50;99.90
51853;DHT22;37894;53.172;6.598;2023-01-15T06:01:08;5.60;99.90
51853;DHT22;37894;53.172;6.598;2023-01-15T06:06:01;5.70;99.90
51853;DHT22;37894;53.172;6.598;2023-01-15T06:08:26;5.60;99.90
51853;DHT22;37894;53.172;6.598;2023-01-15T06:10:52;6.60;99.90
51853;DHT22;37894;53.172;6.598;2023-01-15T06:13:18;5.50;99.90
51853;DHT22;37894;53.172;6.598;2023-01-15T06:15:44;5.50;99.90
51853;DHT22;37894;53.172;6.598;2023-01-15T06:18:10;5.70;99.90
51853;DHT22;37894;53.172;6.598;2023-01-15T06:20:40;5.00;99.90
51853;DHT22;37894;53.172;6.598;2023-01-15T06:23:07;5.30;99.90
51853;DHT22;37894;53.172;6.598;2023-01-15T06:25:33;6.30;99.90
51853;DHT22;37894;53.172;6.598;2023-01-15T06:28:03;5.30;99.90
51853;DHT22;37894;53.172;6.598;2023-01-15T06:30:29;5.60;99.90
51853;DHT22;37894;53.172;6.598;2023-01-15T06:32:54;5.50;99.90
51853;DHT22;37894;53.172;6.598;2023-01-15T06:35:20;5.40;99.90
51853;DHT22;37894;53.172;6.598;2023-01-15T06:37:48;4.70;99.90
51853;DHT22;37894;53.172;6.598;2023-01-15T06:40:14;5.40;99.90
51853;DHT22;37894;53.172;6.598;2023-01-15T06:42:40;4.50;99.90
51853;DHT22;37894;53.172;6.598;2023-01-15T06:45:24;5.40;99.90
51853;DHT22;37894;53.172;6.598;2023-01-15T06:48:09;5.10;99.90
51853;DHT22;37894;53.172;6.598;2023-01-15T06:50:34;5.30;99.90
51853;DHT22;37894;53.172;6.598;2023-01-15T06:53:00;5.50;99.90
51853;DHT22;37894;53.172;6.598;2023-01-15T06:55:26;5.80;99.90
51853;DHT22;37894;53.172;6.598;2023-01-15T06:57:51;4.70;99.90
51853;DHT22;37894;53.172;6.598;2023-01-15T07:00:17;5.20;99.90
51853;DHT22;37894;53.172;6.598;2023-01-15T07:02:43;5.20;99.90
51853;DHT22;37894;53.172;6.598;2023-01-15T07:07:35;5.70;99.90
51853;DHT22;37894;53.172;6.598;2023-01-15T07:12:27;5.40;99.90
51853;DHT22;37894;53.172;6.598;2023-01-15T07:14:53;6.30;99.90
51853;DHT22;37894;53.172;6.598;2023-01-15T07:17:19;6.00;99.90
51853;DHT22;37894;53.172;6.598;2023-01-15T07:19:46;6.20;99.90
51853;DHT22;37894;53.172;6.598;2023-01-15T07:22:12;5.50;99.90
51853;DHT22;37894;53.172;6.598;2023-01-15T07:24:37;4.50;99.90
51853;DHT22;37894;53.172;6.598;2023-01-15T07:29:29;5.40;99.90
51853;DHT22;37894;53.172;6.598;2023-01-15T07:34:21;5.10;99.90
51853;DHT22;37894;53.172;6.598;2023-01-15T07:36:47;5.20;99.90
51853;DHT22;37894;53.172;6.598;2023-01-15T07:39:13;5.40;99.90
51853;DHT22;37894;53.172;6.598;2023-01-15T07:41:39;5.00;99.90
51853;DHT22;37894;53.172;6.598;2023-01-15T07:44:23;5.00;99.90
51853;DHT22;37894;53.172;6.598;2023-01-15T07:47:24;5.20;99.90
51853;DHT22;37894;53.172;6.598;2023-01-15T07:50:18;5.30;99.90
51853;DHT22;37894;53.172;6.598;2023-01-15T07:57:38;5.30;99.90
51853;DHT22;37894;53.172;6.598;2023-01-15T08:00:07;5.40;99.90
51853;DHT22;37894;53.172;6.598;2023-01-15T08:02:33;5.20;99.90
51853;DHT22;37894;53.172;6.598;2023-01-15T08:04:58;5.10;99.90
51853;DHT22;37894;53.172;6.598;2023-01-15T08:07:24;5.30;99.90
51853;DHT22;37894;53.172;6.598;2023-01-15T08:12:16;4.80;99.90
51853;DHT22;37894;53.172;6.598;2023-01-15T08:15:00;5.40;99.90
51853;DHT22;37894;53.172;6.598;2023-01-15T08:17:43;5.50;99.90
51853;DHT22;37894;53.172;6.598;2023-01-15T08:20:20;5.40;99.90
51853;DHT22;37894;53.172;6.598;2023-01-15T08:22:46;5.70;99.90
51853;DHT22;37894;53.172;6.598;2023-01-15T08:25:18;6.60;99.90
51853;DHT22;37894;53.172;6.598;2023-01-15T08:27:45;5.60;99.90
51853;DHT22;37894;53.172;6.598;2023-01-15T08:30:13;5.60;99.90
51853;DHT22;37894;53.172;6.598;2023-01-15T08:35:06;4.80;99.90
51853;DHT22;37894;53.172;6.598;2023-01-15T08:37:32;5.90;99.90
51853;DHT22;37894;53.172;6.598;2023-01-15T08:42:24;5.60;99.90
51853;DHT22;37894;53.172;6.598;2023-01-15T08:44:49;5.70;99.90
51853;DHT22;37894;53.172;6.598;2023-01-15T08:47:16;5.20;99.90
51853;DHT22;37894;53.172;6.598;2023-01-15T08:49:42;5.40;99.90
51853;DHT22;37894;53.172;6.598;2023-01-15T08:52:08;5.20;99.90
51853;DHT22;37894;53.172;6.598;2023-01-15T08:54:33;5.80;99.90
51853;DHT22;37894;53.172;6.598;2023-01-15T08:57:00;5.00;99.90
51853;DHT22;37894;53.172;6.598;2023-01-15T08:59:26;5.60;99.90
51853;DHT22;37894;53.172;6.598;2023-01-15T09:01:52;5.60;99.90
51853;DHT22;37894;53.172;6.598;2023-01-15T09:04:19;5.60;99.90
51853;DHT22;37894;53.172;6.598;2023-01-15T09:06:46;5.80;99.90
51853;DHT22;37894;53.172;6.598;2023-01-15T09:11:39;5.40;99.90
51853;DHT22;37894;53.172;6.598;2023-01-15T09:14:08;5.50;99.90
51853;DHT22;37894;53.172;6.598;2023-01-15T09:16:38;5.70;99.90
51853;DHT22;37894;53.172;6.598;2023-01-15T09:19:05;5.50;99.90
51853;DHT22;37894;53.172;6.598;2023-01-15T09:21:33;5.10;99.90
51853;DHT22;37894;53.172;6.598;2023-01-15T09:23:59;5.10;99.90
51853;DHT22;37894;53.172;6.598;2023-01-15T09:26:34;5.70;99.90
51853;DHT22;37894;53.172;6.598;2023-01-15T09:29:00;5.50;99.90
51853;DHT22;37894;53.172;6.598;2023-01-15T09:33:56;5.50;99.90
51853;DHT22;37894;53.172;6.598;2023-01-15T09:36:33;5.60;99.90
51853;DHT22;37894;53.172;6.598;2023-01-15T09:39:00;5.50;99.90
51853;DHT22;37894;53.172;6.598;2023-01-15T09:41:37;5.60;99.90
51853;DHT22;37894;53.172;6.598;2023-01-15T09:55:57;5.80;99.90
51853;DHT22;37894;53.172;6.598;2023-01-15T09:58:36;6.00;99.90
51853;DHT22;37894;53.172;6.598;2023-01-15T10:03:44;5.70;99.90
51853;DHT22;37894;53.172;6.598;2023-01-15T10:08:44;6.20;99.90
51853;DHT22;37894;53.172;6.598;2023-01-15T10:13:59;6.30;99.90
51853;DHT22;37894;53.172;6.598;2023-01-15T10:16:28;6.80;99.90
51853;DHT22;37894;53.172;6.598;2023-01-15T10:18:56;6.70;99.90
51853;DHT22;37894;53.172;6.598;2023-01-15T10:24:05;7.80;99.90
51853;DHT22;37894;53.172;6.598;2023-01-15T10:26:35;6.50;99.90
51853;DHT22;37894;53.172;6.598;2023-01-15T10:29:16;7.90;99.90
51853;DHT22;37894;53.172;6.598;2023-01-15T10:31:49;6.70;99.90
51853;DHT22;37894;53.172;6.598;2023-01-15T10:37:08;7.10;99.90
51853;DHT22;37894;53.172;6.598;2023-01-15T10:42:35;7.00;99.90
51853;DHT22;37894;53.172;6.598;2023-01-15T10:45:20;7.00;99.90
51853;DHT22;37894;53.172;6.598;2023-01-15T10:47:51;6.90;99.90
51853;DHT22;37894;53.172;6.598;2023-01-15T10:50:21;7.10;99.90
51853;DHT22;37894;53.172;6.598;2023-01-15T10:53:08;6.90;99.90
51853;DHT22;37894;53.172;6.598;2023-01-15T10:55:50;6.80;99.90
51853;DHT22;37894;53.172;6.598;2023-01-15T10:58:40;7.40;99.90
51853;DHT22;37894;53.172;6.598;2023-01-15T11:01:17;7.00;99.90
51853;DHT22;37894;53.172;6.598;2023-01-15T11:03:46;7.20;99.90
51853;DHT22;37894;53.172;6.598;2023-01-15T11:06:20;6.90;99.90
51853;DHT22;37894;53.172;6.598;2023-01-15T11:08:52;6.50;99.90
51853;DHT22;37894;53.172;6.598;2023-01-15T11:14:18;7.40;99.90
51853;DHT22;37894;53.172;6.598;2023-01-15T11:17:02;7.30;99.90
51853;DHT22;37894;53.172;6.598;2023-01-15T11:19:51;7.50;99.90
51853;DHT22;37894;53.172;6.598;2023-01-15T11:22:18;7.60;99.90
51853;DHT22;37894;53.172;6.598;2023-01-15T11:24:53;7.90;99.90
51853;DHT22;37894;53.172;6.598;2023-01-15T11:27:25;7.70;99.90
51853;DHT22;37894;53.172;6.598;2023-01-15T11:29:57;7.80;99.90
51853;DHT22;37894;53.172;6.598;2023-01-15T11:34:56;7.40;99.90
51853;DHT22;37894;53.172;6.598;2023-01-15T11:39:56;7.60;99.90
51853;DHT22;37894;53.172;6.598;2023-01-15T11:42:24;7.40;99.90
51853;DHT22;37894;53.172;6.598;2023-01-15T11:45:18;7.40;99.90
51853;DHT22;37894;53.172;6.598;2023-01-15T11:48:14;7.40;99.90
51853;DHT22;37894;53.172;6.598;2023-01-15T11:51:15;7.30;99.90
51853;DHT22;37894;53.172;6.598;2023-01-15T11:53:56;7.40;99.90
51853;DHT22;37894;53.172;6.598;2023-01-15T11:56:25;7.40;99.90
51853;DHT22;37894;53.172;6.598;2023-01-15T11:58:57;7.20;99.90
51853;DHT22;37894;53.172;6.598;2023-01-15T12:01:35;6.90;99.90
51853;DHT22;37894;53.172;6.598;2023-01-15T12:04:21;7.90;99.90
51853;DHT22;37894;53.172;6.598;2023-01-15T12:06:48;7.50;99.90
51853;DHT22;37894;53.172;6.598;2023-01-15T12:25:42;6.60;99.90
51853;DHT22;37894;53.172;6.598;2023-01-15T12:28:22;6.60;99.90
51853;DHT22;37894;53.172;6.598;2023-01-15T12:31:00;6.80;99.90
51853;DHT22;37894;53.172;6.598;2023-01-15T12:36:11;6.70;99.90
51853;DHT22;37894;53.172;6.598;2023-01-15T12:38:50;6.70;99.90
51853;DHT22;37894;53.172;6.598;2023-01-15T12:41:44;6.50;99.90
51853;DHT22;37894;53.172;6.598;2023-01-15T12:44:51;6.10;99.90
51853;DHT22;37894;53.172;6.598;2023-01-15T12:47:38;5.90;99.90
51853;DHT22;37894;53.172;6.598;2023-01-15T12:52:50;6.50;99.90
51853;DHT22;37894;53.172;6.598;2023-01-15T12:55:27;5.20;99.90
51853;DHT22;37894;53.172;6.598;2023-01-15T12:57:59;5.10;99.90
51853;DHT22;37894;53.172;6.598;2023-01-15T13:00:35;5.00;99.90
51853;DHT22;37894;53.172;6.598;2023-01-15T13:05:57;5.00;99.90
51853;DHT22;37894;53.172;6.598;2023-01-15T13:08:32;4.80;99.90
51853;DHT22;37894;53.172;6.598;2023-01-15T13:10:59;4.60;99.90
51853;DHT22;37894;53.172;6.598;2023-01-15T13:13:31;7.70;99.90
51853;DHT22;37894;53.172;6.598;2023-01-15T13:16:20;5.70;99.90
51853;DHT22;37894;53.172;6.598;2023-01-15T13:21:35;4.80;99.90
51853;DHT22;37894;53.172;6.598;2023-01-15T13:24:26;4.60;99.90
51853;DHT22;37894;53.172;6.598;2023-01-15T13:27:30;4.90;99.90
51853;DHT22;37894;53.172;6.598;2023-01-15T13:30:40;4.70;99.90
51853;DHT22;37894;53.172;6.598;2023-01-15T13:33:28;4.60;99.90
51853;DHT22;37894;53.172;6.598;2023-01-15T13:36:09;4.80;99.90
51853;DHT22;37894;53.172;6.598;2023-01-15T13:38:44;4.60;99.90
51853;DHT22;37894;53.172;6.598;2023-01-15T13:41:17;4.70;99.90
51853;DHT22;37894;53.172;6.598;2023-01-15T13:44:03;4.90;99.90
51853;DHT22;37894;53.172;6.598;2023-01-15T13:46:29;4.60;99.90
51853;DHT22;37894;53.172;6.598;2023-01-15T13:48:55;5.00;99.90
51853;DHT22;37894;53.172;6.598;2023-01-15T13:53:55;4.80;99.90
51853;DHT22;37894;53.172;6.598;2023-01-15T13:56:29;4.70;99.90
51853;DHT22;37894;53.172;6.598;2023-01-15T13:59:00;5.10;99.90
51853;DHT22;37894;53.172;6.598;2023-01-15T14:06:45;5.00;99.90
51853;DHT22;37894;53.172;6.598;2023-01-15T14:09:26;5.10;99.90
51853;DHT22;37894;53.172;6.598;2023-01-15T14:30:28;5.20;99.90
51853;DHT22;37894;53.172;6.598;2023-01-15T14:33:34;5.00;99.90
51853;DHT22;37894;53.172;6.598;2023-01-15T14:36:26;4.20;99.90
51853;DHT22;37894;53.172;6.598;2023-01-15T14:38:58;5.10;99.90
51853;DHT22;37894;53.172;6.598;2023-01-15T14:41:27;4.40;99.90
51853;DHT22;37894;53.172;6.598;2023-01-15T14:43:54;5.20;99.90
51853;DHT22;37894;53.172;6.598;2023-01-15T14:46:31;5.00;99.90
51853;DHT22;37894;53.172;6.598;2023-01-15T14:49:00;5.20;99.90
51853;DHT22;37894;53.172;6.598;2023-01-15T14:51:27;4.90;99.90
51853;DHT22;37894;53.172;6.598;2023-01-15T14:54:01;5.40;99.90
51853;DHT22;37894;53.172;6.598;2023-01-15T14:56:34;5.30;99.90
51853;DHT22;37894;53.172;6.598;2023-01-15T14:59:16;5.30;99.90
51853;DHT22;37894;53.172;6.598;2023-01-15T15:01:51;5.30;99.90
51853;DHT22;37894;53.172;6.598;2023-01-15T15:04:33;5.20;99.90
51853;DHT22;37894;53.172;6.598;2023-01-15T15:07:24;5.40;99.90
51853;DHT22;37894;53.172;6.598;2023-01-15T15:10:06;5.40;99.90
51853;DHT22;37894;53.172;6.598;2023-01-15T15:18:46;5.50;99.90
51853;DHT22;37894;53.172;6.598;2023-01-15T15:21:04;5.60;99.90
51853;DHT22;37894;53.172;6.598;2023-01-15T15:26:36;5.50;99.90
51853;DHT22;37894;53.172;6.598;2023-01-15T15:31:38;6.00;99.90
51853;DHT22;37894;53.172;6.598;2023-01-15T15:34:06;5.40;99.90
51853;DHT22;37894;53.172;6.598;2023-01-15T15:36:35;6.20;99.90
51853;DHT22;37894;53.172;6.598;2023-01-15T15:39:12;5.60;99.90
51853;DHT22;37894;53.172;6.598;2023-01-15T15:41:44;5.30;99.90
51853;DHT22;37894;53.172;6.598;2023-01-15T15:44:34;5.50;99.90
51853;DHT22;37894;53.172;6.598;2023-01-15T15:47:22;5.40;99.90
51853;DHT22;37894;53.172;6.598;2023-01-15T15:50:18;6.00;99.90
51853;DHT22;37894;53.172;6.598;2023-01-15T15:55:14;5.40;99.90
51853;DHT22;37894;53.172;6.598;2023-01-15T15:57:41;5.20;99.90
51853;DHT22;37894;53.172;6.598;2023-01-15T16:00:32;5.50;99.90
51853;DHT22;37894;53.172;6.598;2023-01-15T16:03:04;5.40;99.90
51853;DHT22;37894;53.172;6.598;2023-01-15T16:05:30;5.40;99.90
51853;DHT22;37894;53.172;6.598;2023-01-15T16:08:18;5.30;99.90
51853;DHT22;37894;53.172;6.598;2023-01-15T16:10:47;4.60;99.90
51853;DHT22;37894;53.172;6.598;2023-01-15T16:13:23;5.50;99.90
51853;DHT22;37894;53.172;6.598;2023-01-15T16:15:52;5.30;99.90
51853;DHT22;37894;53.172;6.598;2023-01-15T16:18:35;5.20;99.90
51853;DHT22;37894;53.172;6.598;2023-01-15T16:21:06;5.40;99.90
51853;DHT22;37894;53.172;6.598;2023-01-15T16:23:32;5.20;99.90
51853;DHT22;37894;53.172;6.598;2023-01-15T16:26:10;5.40;99.90
51853;DHT22;37894;53.172;6.598;2023-01-15T16:28:39;5.40;99.90
51853;DHT22;37894;53.172;6.598;2023-01-15T16:31:10;5.10;99.90
51853;DHT22;37894;53.172;6.598;2023-01-15T16:33:39;5.00;99.90
51853;DHT22;37894;53.172;6.598;2023-01-15T16:36:06;5.10;99.90
51853;DHT22;37894;53.172;6.598;2023-01-15T16:38:40;5.00;99.90
51853;DHT22;37894;53.172;6.598;2023-01-15T16:41:17;5.10;99.90
51853;DHT22;37894;53.172;6.598;2023-01-15T16:43:55;5.20;99.90
51853;DHT22;37894;53.172;6.598;2023-01-15T16:46:23;5.40;99.90
51853;DHT22;37894;53.172;6.598;2023-01-15T16:49:23;4.90;99.90
51853;DHT22;37894;53.172;6.598;2023-01-15T16:51:51;5.80;99.90
51853;DHT22;37894;53.172;6.598;2023-01-15T16:57:28;5.30;99.90
51853;DHT22;37894;53.172;6.598;2023-01-15T17:00:03;5.00;99.90
51853;DHT22;37894;53.172;6.598;2023-01-15T17:02:39;5.70;99.90
51853;DHT22;37894;53.172;6.598;2023-01-15T17:05:23;4.70;99.90
51853;DHT22;37894;53.172;6.598;2023-01-15T17:07:50;5.20;99.90
51853;DHT22;37894;53.172;6.598;2023-01-15T17:10:28;4.40;99.90
51853;DHT22;37894;53.172;6.598;2023-01-15T17:12:56;4.80;99.90
51853;DHT22;37894;53.172;6.598;2023-01-15T17:15:29;5.70;99.90
51853;DHT22;37894;53.172;6.598;2023-01-15T17:18:18;4.80;99.90
51853;DHT22;37894;53.172;6.598;2023-01-15T17:23:12;5.10;99.90
51853;DHT22;37894;53.172;6.598;2023-01-15T17:25:37;5.20;99.90
51853;DHT22;37894;53.172;6.598;2023-01-15T17:28:04;5.10;99.90
51853;DHT22;37894;53.172;6.598;2023-01-15T17:30:31;5.10;99.90
51853;DHT22;37894;53.172;6.598;2023-01-15T17:33:02;5.10;99.90
51853;DHT22;37894;53.172;6.598;2023-01-15T17:35:34;4.80;99.90
51853;DHT22;37894;53.172;6.598;2023-01-15T17:38:00;5.10;99.90
51853;DHT22;37894;53.172;6.598;2023-01-15T17:42:53;5.30;99.90
51853;DHT22;37894;53.172;6.598;2023-01-15T17:45:22;4.50;99.90
51853;DHT22;37894;53.172;6.598;2023-01-15T17:47:48;5.10;99.90
51853;DHT22;37894;53.172;6.598;2023-01-15T17:52:41;5.80;99.90
51853;DHT22;37894;53.172;6.598;2023-01-15T17:55:15;5.00;99.90
51853;DHT22;37894;53.172;6.598;2023-01-15T17:58:00;5.20;99.90
51853;DHT22;37894;53.172;6.598;2023-01-15T18:00:45;4.90;99.90
51853;DHT22;37894;53.172;6.598;2023-01-15T18:06:15;5.40;99.90
51853;DHT22;37894;53.172;6.598;2023-01-15T18:08:44;5.10;99.90
51853;DHT22;37894;53.172;6.598;2023-01-15T18:11:11;5.20;99.90
51853;DHT22;37894;53.172;6.598;2023-01-15T18:13:36;5.10;99.90
51853;DHT22;37894;53.172;6.598;2023-01-15T18:16:06;5.30;99.90
51853;DHT22;37894;53.172;6.598;2023-01-15T18:18:32;4.90;99.90
51853;DHT22;37894;53.172;6.598;2023-01-15T18:20:59;5.00;99.90
51853;DHT22;37894;53.172;6.598;2023-01-15T18:23:26;4.90;99.90
51853;DHT22;37894;53.172;6.598;2023-01-15T18:25:51;5.00;99.90
51853;DHT22;37894;53.172;6.598;2023-01-15T18:28:17;4.80;99.90
51853;DHT22;37894;53.172;6.598;2023-01-15T18:30:43;4.60;99.90
51853;DHT22;37894;53.172;6.598;2023-01-15T18:33:08;5.00;99.90
51853;DHT22;37894;53.172;6.598;2023-01-15T18:35:34;4.60;99.90
51853;DHT22;37894;53.172;6.598;2023-01-15T18:38:00;4.90;99.90
51853;DHT22;37894;53.172;6.598;2023-01-15T18:40:25;4.90;99.90
51853;DHT22;37894;53.172;6.598;2023-01-15T18:42:54;5.00;99.90
51853;DHT22;37894;53.172;6.598;2023-01-15T18:48:23;4.90;99.90
51853;DHT22;37894;53.172;6.598;2023-01-15T18:50:48;4.80;99.90
51853;DHT22;37894;53.172;6.598;2023-01-15T18:53:14;4.00;99.90
51853;DHT22;37894;53.172;6.598;2023-01-15T18:55:40;4.60;99.90
51853;DHT22;37894;53.172;6.598;2023-01-15T19:00:35;4.70;99.90
51853;DHT22;37894;53.172;6.598;2023-01-15T19:03:01;5.10;99.90
51853;DHT22;37894;53.172;6.598;2023-01-15T19:05:27;5.30;99.90
51853;DHT22;37894;53.172;6.598;2023-01-15T19:07:53;5.10;99.90
51853;DHT22;37894;53.172;6.598;2023-01-15T19:15:15;5.00;99.90
51853;DHT22;37894;53.172;6.598;2023-01-15T19:17:59;4.70;99.90
51853;DHT22;37894;53.172;6.598;2023-01-15T19:20:43;4.90;99.90
51853;DHT22;37894;53.172;6.598;2023-01-15T19:25:41;4.80;99.90
51853;DHT22;37894;53.172;6.598;2023-01-15T19:28:09;5.00;99.90
51853;DHT22;37894;53.172;6.598;2023-01-15T19:30:37;4.90;99.90
51853;DHT22;37894;53.172;6.598;2023-01-15T19:33:04;5.10;99.90
51853;DHT22;37894;53.172;6.598;2023-01-15T19:35:30;5.60;99.90
51853;DHT22;37894;53.172;6.598;2023-01-15T19:37:56;5.10;99.90
51853;DHT22;37894;53.172;6.598;2023-01-15T19:40:22;5.20;99.90